createdAt,value
2019-01-09T00:01:23.906Z,100.00
2019-01-09T00:03:57.363Z,100.00
2019-01-09T00:06:30.755Z,100.00
2019-01-09T00:09:06.721Z,100.00
2019-01-09T00:11:39.370Z,100.00
2019-01-09T00:14:12.375Z,100.00
2019-01-09T00:16:45.867Z,100.00
2019-01-09T00:19:19.543Z,100.00
2019-01-09T00:21:52.571Z,100.00
2019-01-09T00:24:26.384Z,100.00
2019-01-09T00:26:59.561Z,100.00
2019-01-09T00:29:32.949Z,100.00
2019-01-09T00:32:05.950Z,100.00
2019-01-09T00:34:39.406Z,100.00
2019-01-09T00:37:13.291Z,100.00
2019-01-09T00:39:47.150Z,100.00
2019-01-09T00:42:20.637Z,100.00
2019-01-09T00:44:53.851Z,100.00
2019-01-09T00:47:27.319Z,100.00
2019-01-09T00:50:00.786Z,100.00
2019-01-09T00:52:34.191Z,100.00
2019-01-09T00:55:07.506Z,100.00
2019-01-09T00:57:41.456Z,100.00
2019-01-09T01:00:16.392Z,100.00
2019-01-09T01:03:08.626Z,100.00
2019-01-09T01:06:41.932Z,100.00
2019-01-09T01:09:59.683Z,100.00
2019-01-09T01:13:08.918Z,100.00
2019-01-09T01:16:18.789Z,100.00
2019-01-09T01:19:25.232Z,100.00
2019-01-09T01:22:31.715Z,100.00
2019-01-09T01:26:13.386Z,100.00
2019-01-09T01:29:27.831Z,100.00
2019-01-09T01:32:30.745Z,100.00
2019-01-09T01:35:54.487Z,100.00
2019-01-09T01:38:56.287Z,100.00
2019-01-09T01:42:13.091Z,100.00
2019-01-09T01:45:02.881Z,100.00
2019-01-09T01:48:16.943Z,100.00
2019-01-09T01:51:18.932Z,100.00
2019-01-09T01:54:23.423Z,100.00
2019-01-09T01:57:36.662Z,100.00
2019-01-09T02:00:54.014Z,100.00
2019-01-09T02:04:03.632Z,100.00
2019-01-09T02:07:25.073Z,100.00
2019-01-09T02:10:55.087Z,100.00
2019-01-09T02:14:12.093Z,100.00
2019-01-09T02:17:09.288Z,100.00
2019-01-09T02:20:08.599Z,100.00
2019-01-09T02:23:26.189Z,100.00
2019-01-09T02:26:13.747Z,100.00
2019-01-09T02:29:24.550Z,100.00
2019-01-09T02:32:34.956Z,100.00
2019-01-09T02:35:08.011Z,100.00
2019-01-09T02:37:41.566Z,100.00
2019-01-09T02:40:15.166Z,100.00
2019-01-09T02:42:48.997Z,100.00
2019-01-09T02:45:24.221Z,100.00
2019-01-09T02:47:58.115Z,100.00
2019-01-09T02:50:31.516Z,100.00
2019-01-09T02:53:05.209Z,100.00
2019-01-09T02:55:39.502Z,100.00
2019-01-09T02:58:13.267Z,100.00
2019-01-09T03:00:46.208Z,100.00
2019-01-09T03:03:19.618Z,100.00
2019-01-09T03:05:52.226Z,100.00
2019-01-09T03:08:25.945Z,100.00
2019-01-09T03:10:59.662Z,100.00
2019-01-09T03:13:32.950Z,100.00
2019-01-09T03:16:06.605Z,100.00
2019-01-09T03:18:39.794Z,100.00
2019-01-09T03:21:13.132Z,100.00
2019-01-09T03:23:46.726Z,100.00
2019-01-09T03:26:20.471Z,100.00
2019-01-09T03:28:53.712Z,100.00
2019-01-09T03:31:27.473Z,100.00
2019-01-09T03:34:00.102Z,100.00
2019-01-09T03:36:33.778Z,100.00
2019-01-09T03:39:07.110Z,100.00
2019-01-09T03:41:40.083Z,100.00
2019-01-09T03:44:13.357Z,100.00
2019-01-09T03:46:46.764Z,100.00
2019-01-09T03:49:20.041Z,100.00
2019-01-09T03:51:53.946Z,98.37
2019-01-09T03:54:26.565Z,99.18
2019-01-09T03:56:59.589Z,100.00
2019-01-09T03:59:32.945Z,97.89
2019-01-09T04:02:06.089Z,97.86
2019-01-09T04:04:39.420Z,97.73
2019-01-09T04:07:13.049Z,99.39
2019-01-09T04:09:46.422Z,99.09
2019-01-09T04:12:20.284Z,97.94
2019-01-09T04:14:53.323Z,96.06
2019-01-09T04:17:26.415Z,94.93
2019-01-09T04:20:02.168Z,94.63
2019-01-09T04:22:35.252Z,92.76
2019-01-09T04:25:08.764Z,91.86
2019-01-09T04:27:42.160Z,93.77
2019-01-09T04:30:15.442Z,93.51
2019-01-09T04:32:48.093Z,93.12
2019-01-09T04:35:21.603Z,91.66
2019-01-09T04:37:56.346Z,92.66
2019-01-09T04:40:28.926Z,92.96
2019-01-09T04:43:04.067Z,92.82
2019-01-09T04:45:37.864Z,93.87
2019-01-09T04:48:11.260Z,91.90
2019-01-09T04:50:44.238Z,89.64
2019-01-09T04:53:17.581Z,90.00
2019-01-09T04:55:50.984Z,91.33
2019-01-09T04:58:24.023Z,92.11
2019-01-09T05:00:56.705Z,88.86
2019-01-09T05:03:30.126Z,88.94
2019-01-09T05:06:03.560Z,89.74
2019-01-09T05:08:36.698Z,90.32
2019-01-09T05:11:09.824Z,88.76
2019-01-09T05:13:43.293Z,89.10
2019-01-09T05:16:16.682Z,91.34
2019-01-09T05:18:50.175Z,89.75
2019-01-09T05:21:24.092Z,89.21
2019-01-09T05:23:57.076Z,90.28
2019-01-09T05:26:30.156Z,89.32
2019-01-09T05:29:03.594Z,89.55
2019-01-09T05:31:36.244Z,89.84
2019-01-09T05:34:09.614Z,89.28
2019-01-09T05:36:42.527Z,91.12
2019-01-09T05:39:16.380Z,89.68
2019-01-09T05:41:50.279Z,89.26
2019-01-09T05:44:23.642Z,90.34
2019-01-09T05:46:57.048Z,92.63
2019-01-09T05:49:30.425Z,92.75
2019-01-09T05:52:03.544Z,96.71
2019-01-09T05:54:38.236Z,99.72
2019-01-09T05:57:13.401Z,100.00
2019-01-09T05:59:46.793Z,100.00
2019-01-09T06:02:20.497Z,100.00
2019-01-09T06:04:53.173Z,100.00
2019-01-09T06:07:26.434Z,100.00
2019-01-09T06:09:59.471Z,100.00
2019-01-09T06:12:32.489Z,100.00
2019-01-09T06:15:05.841Z,100.00
2019-01-09T06:17:39.380Z,100.00
2019-01-09T06:20:12.773Z,100.00
2019-01-09T06:22:46.076Z,99.83
2019-01-09T06:25:19.521Z,99.92
2019-01-09T06:27:53.042Z,99.19
2019-01-09T06:30:26.631Z,100.00
2019-01-09T06:32:59.331Z,99.03
2019-01-09T06:35:32.869Z,98.93
2019-01-09T06:38:06.827Z,98.19
2019-01-09T06:40:40.651Z,95.96
2019-01-09T06:43:16.453Z,91.85
2019-01-09T06:45:50.215Z,92.22
2019-01-09T06:48:23.823Z,91.39
2019-01-09T06:50:57.109Z,89.94
2019-01-09T06:53:30.540Z,90.58
2019-01-09T06:56:03.906Z,89.24
2019-01-09T06:58:37.546Z,88.50
2019-01-09T07:01:11.542Z,89.80
2019-01-09T07:03:44.900Z,89.10
2019-01-09T07:06:18.895Z,90.54
2019-01-09T07:08:53.678Z,91.19
2019-01-09T07:11:27.148Z,91.20
2019-01-09T07:14:01.124Z,87.48
2019-01-09T07:16:34.746Z,86.23
2019-01-09T07:19:07.746Z,85.97
2019-01-09T07:21:45.591Z,85.00
2019-01-09T07:24:16.379Z,86.49
2019-01-09T07:26:51.731Z,85.11
2019-01-09T07:29:25.111Z,87.33
2019-01-09T07:31:58.548Z,85.32
2019-01-09T07:34:32.442Z,85.28
2019-01-09T07:37:05.427Z,85.38
2019-01-09T07:39:39.097Z,85.57
2019-01-09T07:42:13.548Z,85.11
2019-01-09T07:44:47.045Z,86.91
2019-01-09T07:47:20.337Z,85.93
2019-01-09T07:49:53.429Z,84.59
2019-01-09T07:52:26.518Z,83.86
2019-01-09T07:54:59.519Z,82.75
2019-01-09T07:57:31.815Z,83.40
2019-01-09T08:00:06.444Z,83.82
2019-01-09T08:02:39.488Z,82.50
2019-01-09T08:05:12.219Z,84.65
2019-01-09T08:07:53.552Z,85.28
2019-01-09T08:10:18.976Z,85.17
2019-01-09T08:12:52.370Z,86.12
2019-01-09T08:15:26.090Z,87.55
2019-01-09T08:17:59.776Z,85.65
2019-01-09T08:20:32.403Z,85.46
2019-01-09T08:23:06.008Z,85.60
2019-01-09T08:25:40.871Z,85.70
2019-01-09T08:28:13.560Z,87.17
2019-01-09T08:30:47.401Z,88.48
2019-01-09T08:33:21.237Z,86.19
2019-01-09T08:35:54.589Z,87.33
2019-01-09T08:38:27.594Z,86.88
2019-01-09T08:41:01.084Z,86.91
2019-01-09T08:43:34.208Z,86.61
2019-01-09T08:46:07.798Z,87.04
2019-01-09T08:48:41.495Z,85.39
2019-01-09T08:51:14.448Z,83.89
2019-01-09T08:53:47.823Z,85.11
2019-01-09T08:56:21.335Z,85.34
2019-01-09T08:58:54.729Z,86.03
2019-01-09T09:01:28.235Z,86.01
2019-01-09T09:04:01.745Z,86.10
2019-01-09T09:06:34.320Z,84.22
2019-01-09T09:09:08.014Z,82.30
2019-01-09T09:11:41.601Z,79.81
2019-01-09T09:14:15.041Z,79.56
2019-01-09T09:16:48.235Z,79.16
2019-01-09T09:19:21.981Z,78.44
2019-01-09T09:21:55.227Z,78.69
2019-01-09T09:24:28.149Z,79.61
2019-01-09T09:27:01.083Z,78.10
2019-01-09T09:29:34.823Z,79.65
2019-01-09T09:32:07.625Z,77.51
2019-01-09T09:34:40.975Z,77.23
2019-01-09T09:37:15.910Z,74.87
2019-01-09T09:39:49.230Z,74.69
2019-01-09T09:42:22.512Z,75.12
2019-01-09T09:44:55.874Z,74.03
2019-01-09T09:47:29.287Z,75.41
2019-01-09T09:50:02.704Z,77.08
2019-01-09T09:52:36.162Z,79.80
2019-01-09T09:55:13.015Z,80.27
2019-01-09T09:57:44.526Z,80.44
2019-01-09T10:00:19.115Z,79.77
2019-01-09T10:02:52.152Z,80.05
2019-01-09T10:05:25.500Z,80.01
2019-01-09T10:07:59.292Z,82.07
2019-01-09T10:10:33.845Z,81.12
2019-01-09T10:13:06.456Z,80.89
2019-01-09T10:15:39.538Z,81.35
2019-01-09T10:18:12.913Z,80.23
2019-01-09T10:20:46.217Z,81.92
2019-01-09T10:23:19.967Z,80.87
2019-01-09T10:25:52.993Z,81.61
2019-01-09T10:28:26.657Z,80.62
2019-01-09T10:31:00.742Z,81.21
2019-01-09T10:33:33.998Z,78.83
2019-01-09T10:36:06.996Z,79.81
2019-01-09T10:38:39.793Z,78.67
2019-01-09T10:41:12.454Z,79.04
2019-01-09T10:43:45.665Z,78.67
2019-01-09T10:46:18.769Z,79.63
2019-01-09T10:48:51.854Z,79.13
2019-01-09T10:51:25.302Z,78.64
2019-01-09T10:54:00.645Z,79.88
2019-01-09T10:56:34.389Z,79.67
2019-01-09T10:59:07.394Z,77.68
2019-01-09T11:01:40.473Z,69.28
2019-01-09T11:04:13.062Z,63.97
2019-01-09T11:06:46.770Z,61.93
2019-01-09T11:09:20.601Z,61.66
2019-01-09T11:11:53.644Z,65.97
2019-01-09T11:14:27.025Z,63.46
2019-01-09T11:17:00.129Z,64.10
2019-01-09T11:19:33.848Z,65.55
2019-01-09T11:22:06.821Z,71.18
2019-01-09T11:24:39.819Z,73.23
2019-01-09T11:27:12.787Z,74.75
2019-01-09T11:29:46.053Z,76.09
2019-01-09T11:32:19.493Z,76.58
2019-01-09T11:34:54.684Z,76.72
2019-01-09T11:37:28.498Z,78.97
2019-01-09T11:40:01.855Z,78.70
2019-01-09T11:42:35.295Z,80.58
2019-01-09T11:45:10.154Z,81.07
2019-01-09T11:47:43.764Z,83.61
2019-01-09T11:50:17.806Z,81.48
2019-01-09T11:52:51.388Z,80.30
2019-01-09T11:55:24.807Z,81.45
2019-01-09T11:57:57.788Z,80.86
2019-01-09T12:00:31.881Z,77.19
2019-01-09T12:03:05.449Z,77.77
2019-01-09T12:05:38.502Z,78.76
2019-01-09T12:08:11.649Z,79.44
2019-01-09T12:10:45.217Z,78.49
2019-01-09T12:13:18.949Z,79.60
2019-01-09T12:15:51.949Z,77.76
2019-01-09T12:18:25.407Z,78.62
2019-01-09T12:20:58.076Z,77.91
2019-01-09T12:23:31.470Z,76.32
2019-01-09T12:26:04.813Z,76.42
2019-01-09T12:28:38.348Z,75.38
2019-01-09T12:31:11.428Z,75.14
2019-01-09T12:33:44.107Z,74.42
2019-01-09T12:36:16.672Z,74.96
2019-01-09T12:38:50.071Z,76.44
2019-01-09T12:41:23.140Z,76.79
2019-01-09T12:43:56.625Z,77.12
2019-01-09T12:46:30.069Z,76.90
2019-01-09T12:49:03.155Z,77.55
2019-01-09T12:51:36.243Z,75.37
2019-01-09T12:54:10.886Z,76.93
2019-01-09T12:56:44.182Z,75.73
2019-01-09T12:59:21.831Z,76.76
2019-01-09T13:01:51.851Z,76.68
2019-01-09T13:04:25.538Z,76.38
2019-01-09T13:06:58.753Z,78.67
2019-01-09T13:09:32.632Z,78.48
2019-01-09T13:12:05.658Z,77.38
2019-01-09T13:14:38.974Z,78.78
2019-01-09T13:17:12.663Z,78.46
2019-01-09T13:19:45.249Z,78.77
2019-01-09T13:22:18.753Z,78.82
2019-01-09T13:24:51.661Z,78.79
2019-01-09T13:27:24.384Z,79.41
2019-01-09T13:29:57.702Z,79.52
2019-01-09T13:32:30.708Z,79.79
2019-01-09T13:35:03.821Z,81.69
2019-01-09T13:37:37.747Z,82.82
2019-01-09T13:40:13.329Z,81.93
2019-01-09T13:42:46.795Z,84.00
2019-01-09T13:45:20.538Z,83.65
2019-01-09T13:47:54.059Z,83.32
2019-01-09T13:50:27.357Z,83.65
2019-01-09T13:53:01.454Z,83.58
2019-01-09T13:55:34.432Z,82.28
2019-01-09T13:58:07.337Z,84.37
2019-01-09T14:00:39.957Z,83.54
2019-01-09T14:03:13.399Z,83.33
2019-01-09T14:05:46.712Z,81.78
2019-01-09T14:08:19.787Z,81.89
2019-01-09T14:10:52.811Z,82.17
2019-01-09T14:13:25.873Z,82.53
2019-01-09T14:15:59.303Z,83.42
2019-01-09T14:18:33.808Z,83.64
2019-01-09T14:21:06.432Z,81.89
2019-01-09T14:23:40.451Z,82.29
2019-01-09T14:26:13.959Z,82.52
2019-01-09T14:28:47.404Z,81.68
2019-01-09T14:31:20.817Z,82.17
2019-01-09T14:33:53.766Z,82.76
2019-01-09T14:36:27.005Z,82.10
2019-01-09T14:39:00.460Z,83.03
2019-01-09T14:41:34.196Z,83.38
2019-01-09T14:44:07.152Z,81.75
2019-01-09T14:46:39.835Z,83.43
2019-01-09T14:49:13.027Z,83.65
2019-01-09T14:51:46.034Z,83.88
2019-01-09T14:54:19.144Z,81.99
2019-01-09T14:56:52.523Z,81.60
2019-01-09T14:59:25.682Z,79.77
2019-01-09T15:01:58.991Z,79.28
2019-01-09T15:04:32.772Z,80.48
2019-01-09T15:07:07.576Z,81.13
2019-01-09T15:09:40.518Z,80.59
2019-01-09T15:12:13.935Z,80.33
2019-01-09T15:14:47.618Z,79.37
2019-01-09T15:17:21.041Z,80.02
2019-01-09T15:19:55.946Z,80.29
2019-01-09T15:22:29.469Z,80.88
2019-01-09T15:25:02.640Z,81.97
2019-01-09T15:27:36.636Z,81.33
2019-01-09T15:30:22.576Z,82.47
2019-01-09T15:32:56.195Z,83.36
2019-01-09T15:35:29.525Z,84.20
2019-01-09T15:38:03.465Z,83.90
2019-01-09T15:40:36.941Z,83.87
2019-01-09T15:43:09.722Z,84.11
2019-01-09T15:45:43.132Z,84.42
2019-01-09T15:48:16.647Z,84.53
2019-01-09T15:50:49.830Z,84.26
2019-01-09T15:53:23.027Z,83.87
2019-01-09T15:55:56.507Z,84.23
2019-01-09T15:58:29.768Z,84.53
2019-01-09T16:01:03.088Z,84.48
2019-01-09T16:03:36.681Z,83.75
2019-01-09T16:06:10.220Z,84.19
2019-01-09T16:08:42.503Z,83.28
2019-01-09T16:11:15.891Z,84.15
2019-01-09T16:13:48.975Z,85.41
2019-01-09T16:16:22.293Z,84.38
2019-01-09T16:18:55.351Z,85.25
2019-01-09T16:21:28.846Z,85.33
2019-01-09T16:24:02.491Z,84.42
2019-01-09T16:26:36.311Z,85.40
2019-01-09T16:29:09.510Z,84.06
2019-01-09T16:31:42.756Z,83.56
2019-01-09T16:34:16.248Z,82.65
2019-01-09T16:36:49.330Z,83.24
2019-01-09T16:39:30.781Z,83.82
2019-01-09T16:41:58.581Z,82.12
2019-01-09T16:44:32.471Z,82.61
2019-01-09T16:47:05.421Z,81.74
2019-01-09T16:49:38.978Z,82.47
2019-01-09T16:52:13.006Z,82.89
2019-01-09T16:54:45.562Z,83.26
2019-01-09T16:57:19.052Z,83.28
2019-01-09T16:59:52.374Z,83.23
2019-01-09T17:02:30.917Z,83.42
2019-01-09T17:05:04.628Z,83.69
2019-01-09T17:07:38.184Z,83.76
2019-01-09T17:10:12.119Z,83.91
2019-01-09T17:12:45.935Z,84.58
2019-01-09T17:15:19.228Z,84.44
2019-01-09T17:17:51.886Z,84.87
2019-01-09T17:20:24.865Z,84.95
2019-01-09T17:22:57.889Z,86.35
2019-01-09T17:25:31.363Z,86.33
2019-01-09T17:28:04.950Z,86.94
2019-01-09T17:30:38.730Z,86.75
2019-01-09T17:33:11.341Z,86.57
2019-01-09T17:35:44.420Z,85.97
2019-01-09T17:38:17.514Z,86.44
2019-01-09T17:40:51.155Z,86.99
2019-01-09T17:43:24.714Z,86.94
2019-01-09T17:45:57.961Z,86.63
2019-01-09T17:48:31.933Z,86.57
2019-01-09T17:51:04.834Z,87.82
2019-01-09T17:53:38.317Z,89.16
2019-01-09T17:56:12.005Z,87.71
2019-01-09T17:58:46.640Z,88.33
2019-01-09T18:01:20.043Z,87.79
2019-01-09T18:03:54.251Z,86.38
2019-01-09T18:06:28.494Z,86.16
2019-01-09T18:09:01.879Z,85.72
2019-01-09T18:11:36.833Z,86.14
2019-01-09T18:14:10.346Z,84.66
2019-01-09T18:16:43.321Z,85.21
2019-01-09T18:19:16.469Z,85.13
2019-01-09T18:21:48.620Z,84.47
2019-01-09T18:24:22.082Z,84.87
2019-01-09T18:26:55.590Z,84.63
2019-01-09T18:29:28.644Z,83.86
2019-01-09T18:32:36.871Z,84.43
2019-01-09T18:35:23.999Z,84.08
2019-01-09T18:38:16.277Z,83.83
2019-01-09T18:41:32.444Z,85.01
2019-01-09T18:44:49.953Z,85.86
2019-01-09T18:47:47.579Z,85.33
2019-01-09T18:51:00.764Z,86.34
2019-01-09T18:53:58.939Z,84.99
2019-01-09T18:56:34.728Z,86.43
2019-01-09T18:59:08.292Z,84.18
2019-01-09T19:01:41.368Z,84.62
2019-01-09T19:04:14.565Z,83.80
2019-01-09T19:06:48.546Z,84.47
2019-01-09T19:09:21.788Z,83.94
2019-01-09T19:11:54.954Z,84.34
2019-01-09T19:14:27.644Z,83.21
